Main page
METAR-TAF:

METAR-TAF

Airports :

Al Udeid, Qatar

Al Udeid Air Base

latitude: 25-07N, longitude: 051-18E, elevation: 42 m

Current weather observation

The report was made 18 minutes ago, at 22:58 UTC
Wind 5 kt from the East/Northeast
Temperature 33°C
Humidity 80%
Pressure 1000 hPa
Visibility: 9000 m
Clear sky
haze

METAR: OTBH 232258Z 06005KT 9000 HZ CLR 33/29 A2953 RMK AO2A SLP000 T03260288 $

Time: 02:16 (23:16 UTC)

Forecast

The report was made 16 minutes ago, at 23:00 UTC
Forecast valid from 23 at 23 UTC to 25 at 05 UTC
Wind 9 kt from the East
Visibility: 9000 m
Few clouds at a height of 16000 ft
haze

TAF: OTBH 232300Z 2323/2505 09009KT 9000 HZ FEW160 QNH2950INS TX44/2411Z TN30/2401Z

Weather observations and forecasts of more than 4000 airports (METAR and TAF reports).

The available stations are represented by yellow and red dots on the map.

Hover mouse over dot to see the name of the station.

Then click to see weather observations and forecasts.

To change the map : click on the green buttons with a black cross to zoom in, on the green button with a dash to zoom out, or on the green arrows for adjacent maps.


METAR-TAF: